Time;durP1;ratioP1;P1;durP2;ratioP2;P2;SDS_P1;SDS_P2;PMS_P1;PMS_P2;Temp;Humidity;BMP_temperature;BMP_pressure;BME280_temperature;BME280_humidity;BME280_pressure;Samples;Min_cycle;Max_cycle;Signal;HPM_P1;HPM_P2
2021/12/25 00:01:44;;;;;;;11.30;7.60;;;;;;;1.23;78.95;97987.70;24463;1359;3026652;-60
2021/12/25 00:04:13;;;;;;;11.70;8.40;;;;;;;1.10;79.86;97998.66;24392;1361;3029557;-56
2021/12/25 00:06:42;;;;;;;9.30;8.00;;;;;;;1.08;79.42;97997.54;24447;1358;3048854;-56
2021/12/25 00:09:11;;;;;;;8.20;5.50;;;;;;;0.90;80.59;97994.71;24430;1358;3026476;-58
2021/12/25 00:11:40;;;;;;;10.00;7.00;;;;;;;1.33;79.66;97987.75;24461;1358;3071633;-59
2021/12/25 00:14:11;;;;;;;10.90;7.80;;;;;;;1.70;77.91;97986.02;24458;1355;3026597;-57
2021/12/25 00:16:40;;;;;;;10.50;7.90;;;;;;;1.69;77.43;97991.23;24421;1359;3051458;-60
2021/12/25 00:19:10;;;;;;;14.40;8.10;;;;;;;1.43;78.32;97999.39;24463;1358;3026233;-56
2021/12/25 00:21:51;;;;;;;11.50;7.60;;;;;;;1.27;78.39;97995.79;24459;1363;3051073;-60
2021/12/25 00:24:21;;;;;;;16.00;8.50;;;;;;;0.87;79.64;97988.80;24493;1355;3026877;-58
2021/12/25 00:27:00;;;;;;;14.10;9.50;;;;;;;0.79;79.71;97982.27;24398;1355;3069512;-58
2021/12/25 00:29:52;;;;;;;13.30;7.80;;;;;;;0.77;80.12;97974.77;24477;1354;3052260;-57
2021/12/25 00:34:50;;;;;;;14.30;9.60;;;;;;;1.55;76.14;97964.46;24477;1360;3027162;-61
2021/12/25 00:37:18;;;;;;;11.30;8.30;;;;;;;1.48;76.36;97963.10;24445;1361;3051700;-56
2021/12/25 00:39:51;;;;;;;16.10;9.40;;;;;;;1.21;77.17;97960.36;24385;1352;3026553;-57
2021/12/25 00:42:20;;;;;;;15.40;10.00;;;;;;;0.81;78.95;97965.84;24434;1356;3028191;-57
2021/12/25 00:44:49;;;;;;;19.30;11.80;;;;;;;0.56;79.65;97967.77;24405;1359;3026549;-57
2021/12/25 00:47:24;;;;;;;17.50;11.60;;;;;;;0.58;79.89;97965.43;24402;1356;3054823;-59
2021/12/25 00:49:53;;;;;;;16.90;10.90;;;;;;;0.51;81.04;97979.90;24476;1354;3026830;-60
2021/12/25 00:52:22;;;;;;;15.70;10.50;;;;;;;1.10;78.93;97967.40;24446;1354;3050968;-59
2021/12/25 00:54:52;;;;;;;14.60;10.60;;;;;;;1.24;77.74;97969.87;24425;1358;3026565;-58
2021/12/25 00:57:21;;;;;;;18.40;10.50;;;;;;;1.36;77.29;97972.62;24438;1359;3026603;-61
2021/12/25 00:59:50;;;;;;;15.90;9.50;;;;;;;1.05;77.23;97972.33;24402;1358;3028675;-55
2021/12/25 01:02:20;;;;;;;18.80;12.00;;;;;;;0.86;77.30;97974.23;24455;1354;3051920;-60
2021/12/25 01:04:48;;;;;;;19.00;12.50;;;;;;;0.58;78.29;97975.98;24461;1362;3026597;-59
2021/12/25 01:07:18;;;;;;;19.70;13.10;;;;;;;0.54;78.22;97977.16;24450;1355;3048934;-58
2021/12/25 01:09:48;;;;;;;15.70;9.50;;;;;;;0.34;79.09;97980.42;24437;1360;3026133;-58
2021/12/25 01:12:18;;;;;;;17.10;11.00;;;;;;;0.91;77.79;97967.41;24417;1359;3027866;-55
2021/12/25 01:14:53;;;;;;;17.40;11.10;;;;;;;0.86;76.85;97968.31;24424;1361;3026519;-59
2021/12/25 01:23:29;;;;;;;22.50;15.00;;;;;;;0.64;76.97;97962.75;24465;1355;3026986;-59
2021/12/25 01:37:08;;;;;;;21.20;12.00;;;;;;;0.63;75.90;97966.77;24464;1362;3055567;-58
2021/12/25 01:40:39;;;;;;;21.70;12.50;;;;;;;0.82;74.90;97956.98;24184;1355;3345410;-60
2021/12/25 01:49:10;;;;;;;22.00;12.50;;;;;;;0.05;77.40;97963.23;24381;1362;3055178;-59
2021/12/25 01:51:39;;;;;;;23.80;13.40;;;;;;;-0.20;77.79;97964.41;24452;1351;3029325;-59
2021/12/25 01:54:08;;;;;;;20.00;11.60;;;;;;;-0.26;79.01;97962.45;24446;1358;3049001;-57
2021/12/25 01:56:38;;;;;;;22.10;13.10;;;;;;;0.22;77.72;97960.76;24455;1355;3026837;-60
2021/12/25 01:59:07;;;;;;;22.80;13.40;;;;;;;0.55;76.28;97956.44;24403;1362;3067642;-58
2021/12/25 02:01:37;;;;;;;23.00;12.40;;;;;;;0.53;75.73;97959.62;24428;1358;3026695;-59
2021/12/25 02:04:07;;;;;;;24.20;12.60;;;;;;;0.37;76.18;97966.51;24447;1363;3026559;-59
2021/12/25 02:06:36;;;;;;;23.90;12.90;;;;;;;0.17;77.05;97970.50;24422;1358;3071048;-55
2021/12/25 02:09:05;;;;;;;22.10;12.60;;;;;;;-0.14;78.21;97984.81;24443;1357;3027152;-58
2021/12/25 02:11:34;;;;;;;18.00;11.70;;;;;;;-0.21;78.79;97991.14;24428;1357;3028279;-60
2021/12/25 02:14:03;;;;;;;13.00;8.50;;;;;;;-0.27;79.43;97993.26;24402;1362;3070715;-59
2021/12/25 02:16:52;;;;;;;13.50;9.90;;;;;;;0.10;78.49;97990.05;24430;1359;3028403;-58
2021/12/25 02:19:42;;;;;;;13.20;8.70;;;;;;;0.42;77.12;97973.72;24430;1357;3053833;-57
2021/12/25 02:22:13;;;;;;;16.00;10.10;;;;;;;0.39;76.95;97980.06;24415;1361;3071014;-59
2021/12/25 02:24:42;;;;;;;14.20;8.90;;;;;;;0.35;76.79;97978.83;24428;1355;3026322;-58
2021/12/25 02:27:13;;;;;;;15.10;9.70;;;;;;;0.04;77.89;97989.08;24424;1361;3026642;-58
2021/12/25 02:29:42;;;;;;;17.30;11.00;;;;;;;0.08;77.58;97992.02;24452;1355;3027225;-56
2021/12/25 02:32:12;;;;;;;14.70;9.90;;;;;;;-0.18;78.35;97998.58;24447;1354;3028540;-55
2021/12/25 02:34:43;;;;;;;12.40;8.30;;;;;;;-0.01;78.24;97990.32;24463;1357;3026682;-58
2021/12/25 02:37:12;;;;;;;13.20;9.10;;;;;;;0.47;77.11;97988.67;24414;1358;3027352;-58
2021/12/25 02:39:41;;;;;;;13.80;9.90;;;;;;;0.60;76.17;97990.17;24429;1359;3027399;-60
2021/12/25 02:42:10;;;;;;;11.50;8.70;;;;;;;0.48;76.15;97977.92;24454;1357;3049490;-57
2021/12/25 02:44:39;;;;;;;16.60;10.50;;;;;;;0.32;76.63;97982.06;24440;1355;3026485;-58
2021/12/25 02:47:18;;;;;;;15.80;10.20;;;;;;;0.15;77.07;97994.34;24422;1356;3026760;-59
2021/12/25 02:49:49;;;;;;;17.60;10.90;;;;;;;-0.06;78.03;97995.55;24410;1363;3071039;-57
2021/12/25 02:52:18;;;;;;;17.90;12.80;;;;;;;-0.20;78.78;97986.61;24437;1358;3027780;-61
2021/12/25 02:54:47;;;;;;;14.90;10.70;;;;;;;-0.40;79.78;97994.65;24410;1356;3026937;-55
2021/12/25 02:57:16;;;;;;;15.60;10.60;;;;;;;-0.01;78.96;97992.73;24376;1357;3071043;-57
2021/12/25 02:59:45;;;;;;;20.90;12.00;;;;;;;0.30;77.08;97994.02;24461;1356;3026651;-57
2021/12/25 03:02:18;;;;;;;24.60;15.80;;;;;;;0.13;77.26;97994.73;24474;1358;3050798;-58
2021/12/25 03:04:48;;;;;;;30.80;18.60;;;;;;;-0.06;78.31;97995.34;24443;1361;3026216;-58
2021/12/25 03:07:17;;;;;;;23.90;15.20;;;;;;;-0.04;78.03;97989.59;24394;1361;3027240;-56
2021/12/25 03:09:47;;;;;;;23.10;15.40;;;;;;;-0.41;79.38;97996.94;24436;1359;3027659;-56
2021/12/25 03:12:25;;;;;;;26.20;14.30;;;;;;;-0.36;79.20;97982.09;24439;1355;3026132;-58
2021/12/25 03:15:13;;;;;;;14.80;10.80;;;;;;;-0.49;79.59;97984.84;24371;1361;3057307;-54
2021/12/25 03:17:43;;;;;;;18.90;10.10;;;;;;;-0.10;78.23;97977.79;24406;1348;3049076;-57
2021/12/25 03:20:12;;;;;;;18.20;11.20;;;;;;;0.26;76.69;97982.31;24415;1358;3026036;-57
2021/12/25 03:22:42;;;;;;;18.50;11.10;;;;;;;0.29;76.21;97983.58;24445;1358;3059406;-55
2021/12/25 03:25:12;;;;;;;17.40;12.60;;;;;;;0.23;75.69;97985.70;24400;1362;3028748;-57
2021/12/25 03:27:42;;;;;;;16.10;10.50;;;;;;;0.04;76.67;97992.89;24459;1354;3054224;-58
2021/12/25 03:30:15;;;;;;;17.90;11.30;;;;;;;-0.10;77.03;97988.46;24376;1355;3026331;-57
2021/12/25 03:32:45;;;;;;;17.60;11.30;;;;;;;-0.26;77.57;97990.66;24417;1358;3052227;-59
2021/12/25 03:35:14;;;;;;;21.00;12.00;;;;;;;-0.37;77.95;97991.62;24474;1355;3026831;-59
2021/12/25 03:37:43;;;;;;;17.40;12.00;;;;;;;-0.30;77.77;97989.27;24452;1355;3056047;-60
2021/12/25 03:40:12;;;;;;;18.60;11.60;;;;;;;0.06;76.77;97992.47;24383;1354;3026457;-59
2021/12/25 03:42:41;;;;;;;20.20;12.70;;;;;;;0.35;75.23;97992.79;24400;1361;3051925;-59
2021/12/25 03:45:10;;;;;;;24.00;14.10;;;;;;;0.37;75.02;97998.90;24413;1359;3026799;-60
2021/12/25 03:47:41;;;;;;;21.40;13.90;;;;;;;0.34;74.73;98004.55;24433;1358;3055022;-60
2021/12/25 03:58:34;;;;;;;22.70;13.40;;;;;;;-0.45;77.92;98033.88;24447;1358;3056156;-57
2021/12/25 04:01:24;;;;;;;26.40;15.30;;;;;;;-0.50;78.55;98032.36;24394;1357;3026212;-57
2021/12/25 04:06:51;;;;;;;22.40;13.10;;;;;;;0.38;75.32;98036.09;24438;1364;3051967;-57
2021/12/25 04:09:25;;;;;;;23.30;13.80;;;;;;;0.19;75.47;98042.88;24448;1356;3052271;-59
2021/12/25 04:11:57;;;;;;;24.30;14.30;;;;;;;0.09;76.32;98049.13;24467;1362;3053947;-58
2021/12/25 04:14:26;;;;;;;27.60;14.80;;;;;;;0.17;76.19;98041.77;24410;1357;3026983;-59
2021/12/25 04:16:55;;;;;;;24.40;15.60;;;;;;;-0.06;77.20;98036.98;24477;1357;3026295;-57
2021/12/25 04:19:25;;;;;;;22.70;13.20;;;;;;;-0.22;77.96;98037.48;24450;1355;3050257;-57
2021/12/25 04:21:59;;;;;;;22.50;11.70;;;;;;;-0.07;77.78;98027.09;24404;1352;3030846;-56
2021/12/25 04:24:31;;;;;;;18.10;11.00;;;;;;;0.25;76.61;98026.46;24394;1356;3050140;-59
2021/12/25 04:27:01;;;;;;;19.10;12.00;;;;;;;0.57;75.22;98019.10;24437;1358;3027097;-59
2021/12/25 05:02:39;;;;;;;19.30;12.50;;;;;;;0.54;76.63;98027.49;24375;1361;3054146;-57
2021/12/25 05:05:34;;;;;;;19.20;12.30;;;;;;;0.62;77.01;98029.89;24428;1362;3058908;-56
2021/12/25 05:08:23;;;;;;;18.40;11.40;;;;;;;1.10;75.53;98021.25;24429;1358;3049610;-56
2021/12/25 05:10:52;;;;;;;17.10;10.30;;;;;;;1.28;74.91;98025.41;24480;1354;3026511;-56
2021/12/25 05:13:21;;;;;;;19.80;11.20;;;;;;;1.16;75.32;98016.66;24480;1355;3058908;-58
2021/12/25 05:15:50;;;;;;;19.10;12.00;;;;;;;1.07;75.60;98021.71;24445;1358;3026813;-59
2021/12/25 05:18:20;;;;;;;18.40;12.70;;;;;;;0.97;76.33;98037.50;24426;1355;3026797;-57
2021/12/25 05:20:49;;;;;;;21.00;14.20;;;;;;;0.87;76.65;98031.91;24415;1358;3058647;-58
2021/12/25 05:23:19;;;;;;;23.10;13.90;;;;;;;0.79;77.31;98028.45;24394;1357;3027246;-59
2021/12/25 05:25:49;;;;;;;19.20;13.10;;;;;;;0.76;77.79;98034.96;24420;1361;3027831;-56
2021/12/25 05:28:26;;;;;;;16.10;10.50;;;;;;;1.30;76.28;98030.32;24473;1358;3026608;-60
2021/12/25 05:30:58;;;;;;;17.90;11.30;;;;;;;1.59;75.02;98022.62;24428;1355;3067954;-58
2021/12/25 05:33:53;;;;;;;21.60;12.50;;;;;;;1.58;74.79;98035.27;24437;1358;3051872;-59
2021/12/25 05:36:46;;;;;;;21.60;13.50;;;;;;;1.52;74.99;98046.39;24436;1355;3053390;-59
2021/12/25 05:39:39;;;;;;;24.30;13.60;;;;;;;1.23;76.59;98071.05;24365;1362;3054442;-57
2021/12/25 05:42:08;;;;;;;19.40;12.20;;;;;;;1.29;76.41;98082.68;24454;1361;3030599;-60
2021/12/25 05:44:39;;;;;;;18.20;11.70;;;;;;;1.24;77.14;98080.63;24418;1351;3030136;-58
2021/12/25 05:47:41;;;;;;;21.40;12.50;;;;;;;2.20;74.44;98090.65;24426;1360;3052245;-58
2021/12/25 05:50:25;;;;;;;17.80;11.90;;;;;;;2.14;73.71;98093.06;24430;1348;3054859;-57
2021/12/25 05:53:04;;;;;;;26.00;13.10;;;;;;;2.17;73.86;98101.02;24423;1354;3050302;-57
2021/12/25 05:55:52;;;;;;;22.90;12.90;;;;;;;2.10;73.85;98115.17;24418;1356;3053094;-60
2021/12/25 05:58:48;;;;;;;16.40;10.60;;;;;;;2.08;73.95;98134.80;24429;1361;3054490;-60
2021/12/25 06:01:17;;;;;;;25.90;16.80;;;;;;;1.98;74.23;98133.53;24423;1354;3026031;-57
2021/12/25 06:03:46;;;;;;;16.50;12.00;;;;;;;1.80;75.37;98135.58;24455;1355;3055150;-58
2021/12/25 06:06:15;;;;;;;18.20;10.70;;;;;;;2.36;74.84;98145.55;24453;1358;3026530;-59
2021/12/25 06:08:44;;;;;;;16.10;10.90;;;;;;;2.81;72.52;98148.22;24418;1355;3053825;-59
2021/12/25 06:11:16;;;;;;;18.30;12.80;;;;;;;2.96;71.85;98148.48;24423;1361;3026608;-60
2021/12/25 06:13:56;;;;;;;13.90;10.50;;;;;;;2.64;72.48;98145.42;24438;1358;3058699;-60
2021/12/25 06:16:27;;;;;;;18.80;11.20;;;;;;;2.39;73.28;98166.35;24426;1358;3052421;-60
2021/12/25 06:19:12;;;;;;;22.50;12.90;;;;;;;2.14;74.47;98171.13;24400;1355;3054863;-60
2021/12/25 06:21:59;;;;;;;17.30;12.40;;;;;;;2.11;74.52;98162.14;24437;1354;3054173;-60
2021/12/25 06:25:01;;;;;;;17.70;11.50;;;;;;;1.96;75.93;98170.39;24429;1361;3071156;-61
2021/12/25 06:27:52;;;;;;;15.60;11.10;;;;;;;2.46;74.71;98166.00;24475;1355;3052770;-60
2021/12/25 06:30:28;;;;;;;20.20;13.20;;;;;;;2.54;73.71;98154.40;24430;1355;3054637;-61
2021/12/25 06:33:05;;;;;;;18.20;12.10;;;;;;;2.28;74.75;98161.33;24397;1355;3052649;-59
2021/12/25 06:36:10;;;;;;;17.50;12.30;;;;;;;2.09;75.23;98162.89;24434;1355;3056046;-59
2021/12/25 06:38:48;;;;;;;23.90;15.10;;;;;;;1.89;76.10;98165.88;24424;1356;3048580;-58
2021/12/25 06:41:34;;;;;;;18.40;13.40;;;;;;;1.73;76.96;98160.07;24441;1359;3052905;-60
2021/12/25 06:44:04;;;;;;;16.80;11.30;;;;;;;1.68;77.58;98160.60;24438;1354;3026627;-56
2021/12/25 06:46:53;;;;;;;18.90;12.30;;;;;;;2.32;75.81;98153.36;24446;1358;3071362;-57
2021/12/25 06:49:23;;;;;;;20.00;12.40;;;;;;;2.26;75.43;98155.20;24459;1361;3026731;-58
2021/12/25 06:52:10;;;;;;;18.00;13.30;;;;;;;2.40;75.06;98157.31;24401;1358;3055384;-60
2021/12/25 06:55:15;;;;;;;23.40;13.20;;;;;;;2.14;76.05;98149.18;24401;1362;3055839;-60
2021/12/25 06:58:10;;;;;;;22.20;15.20;;;;;;;1.97;76.55;98143.10;24400;1355;3058912;-58
2021/12/25 07:00:39;;;;;;;21.20;13.50;;;;;;;1.81;77.21;98140.02;24444;1357;3027032;-59
2021/12/25 07:03:10;;;;;;;22.20;12.10;;;;;;;1.72;78.00;98145.44;24447;1355;3051965;-60
2021/12/25 07:05:57;;;;;;;26.10;15.00;;;;;;;2.30;76.39;98144.29;24407;1355;3055689;-58
2021/12/25 07:08:34;;;;;;;22.30;14.40;;;;;;;2.42;75.76;98142.52;24458;1356;3049954;-60
2021/12/25 07:11:19;;;;;;;26.20;16.30;;;;;;;2.33;76.07;98140.17;24411;1355;3055918;-62
2021/12/25 07:14:12;;;;;;;25.80;15.10;;;;;;;2.20;76.66;98148.05;24390;1358;3053905;-58
2021/12/25 07:16:50;;;;;;;25.70;16.50;;;;;;;2.16;76.73;98157.05;24417;1361;3071759;-59
2021/12/25 07:19:39;;;;;;;20.80;12.70;;;;;;;2.17;76.48;98167.86;24468;1356;3049238;-57
2021/12/25 07:22:26;;;;;;;19.20;13.40;;;;;;;2.00;77.35;98156.93;24500;1356;3051949;-59
2021/12/25 07:25:08;;;;;;;17.50;12.30;;;;;;;1.80;78.75;98154.90;24457;1352;3054631;-61
2021/12/25 07:27:42;;;;;;;21.20;13.30;;;;;;;2.33;77.59;98157.98;24543;1355;3058810;-59
2021/12/25 07:30:12;;;;;;;20.40;13.40;;;;;;;3.03;75.48;98186.21;24459;1358;3026408;-60
2021/12/25 07:32:40;;;;;;;22.70;14.70;;;;;;;2.90;75.25;98196.89;24440;1358;3056211;-61
2021/12/25 07:35:10;;;;;;;22.70;14.70;;;;;;;2.75;75.85;98196.92;24450;1355;3027401;-59
2021/12/25 07:37:40;;;;;;;22.10;14.70;;;;;;;2.28;77.52;98192.92;24445;1357;3054688;-59
2021/12/25 07:40:15;;;;;;;22.60;14.70;;;;;;;1.99;78.84;98207.08;24438;1357;3053293;-59
2021/12/25 07:42:45;;;;;;;20.30;12.90;;;;;;;2.11;78.71;98203.77;24422;1351;3027157;-60
2021/12/25 07:45:23;;;;;;;20.00;12.80;;;;;;;2.56;78.04;98201.30;24473;1354;3049756;-63
2021/12/25 07:47:59;;;;;;;23.70;13.70;;;;;;;3.02;76.23;98206.85;24474;1351;3026273;-57
2021/12/25 07:50:30;;;;;;;24.70;14.50;;;;;;;3.20;75.14;98201.09;24485;1355;3051341;-61
2021/12/25 07:53:01;;;;;;;20.60;14.10;;;;;;;2.71;76.10;98207.30;24446;1358;3026966;-63
2021/12/25 07:55:32;;;;;;;25.80;16.10;;;;;;;2.40;77.69;98212.58;24452;1358;3026404;-58
2021/12/25 07:58:01;;;;;;;22.30;15.70;;;;;;;2.11;78.78;98213.25;24431;1354;3028470;-61
2021/12/25 08:00:30;;;;;;;23.50;16.10;;;;;;;2.15;78.77;98209.30;24433;1355;3026215;-57
2021/12/25 08:02:59;;;;;;;17.20;8.80;;;;;;;2.12;79.23;98208.35;24403;1361;3026829;-60
2021/12/25 08:05:29;;;;;;;20.30;13.20;;;;;;;2.79;77.49;98199.65;24405;1361;3051791;-60
2021/12/25 08:07:58;;;;;;;23.60;13.70;;;;;;;3.01;76.08;98194.59;24448;1356;3027508;-60
2021/12/25 08:10:27;;;;;;;19.70;12.90;;;;;;;2.96;76.66;98198.47;24471;1355;3028390;-59
2021/12/25 08:12:57;;;;;;;23.50;14.40;;;;;;;2.87;76.67;98195.11;24419;1358;3055286;-60
2021/12/25 08:15:27;;;;;;;22.20;14.70;;;;;;;2.71;76.89;98194.52;24458;1355;3026855;-61
2021/12/25 08:17:57;;;;;;;24.40;14.70;;;;;;;2.36;78.67;98198.61;24450;1358;3026350;-63
2021/12/25 08:20:34;;;;;;;29.80;16.00;;;;;;;2.25;79.23;98204.32;24399;1357;3053875;-61
2021/12/25 08:23:25;;;;;;;22.70;14.00;;;;;;;2.14;80.31;98207.61;24444;1358;3055267;-61
2021/12/25 08:26:23;;;;;;;16.30;10.90;;;;;;;3.00;77.22;98207.96;24297;1357;3051976;-62
2021/12/25 08:29:18;;;;;;;26.80;16.90;;;;;;;3.67;74.44;98216.35;24435;1362;3071265;-61
2021/12/25 08:32:07;;;;;;;19.70;14.00;;;;;;;3.23;75.21;98219.27;24462;1358;3051715;-60
2021/12/25 08:34:55;;;;;;;21.40;13.90;;;;;;;2.83;76.84;98221.60;24433;1355;3055058;-61
2021/12/25 08:37:27;;;;;;;26.30;15.40;;;;;;;2.67;77.48;98230.66;24398;1355;3026393;-60
2021/12/25 08:39:56;;;;;;;21.40;16.20;;;;;;;2.66;77.56;98221.39;24397;1361;3029445;-60
2021/12/25 08:42:26;;;;;;;18.40;12.80;;;;;;;2.50;78.48;98226.14;24448;1358;3054409;-60
2021/12/25 08:47:28;;;;;;;23.80;14.00;;;;;;;3.49;75.17;98223.87;24409;1358;3026669;-61
2021/12/25 08:49:57;;;;;;;29.50;15.80;;;;;;;3.66;74.51;98223.70;24461;1355;3029061;-63
2021/12/25 08:52:26;;;;;;;21.70;14.70;;;;;;;3.66;74.17;98228.02;24398;1360;3026670;-59
2021/12/25 08:54:55;;;;;;;23.90;16.00;;;;;;;3.55;74.36;98228.41;24457;1354;3058873;-62
2021/12/25 08:57:24;;;;;;;23.10;13.40;;;;;;;3.20;75.60;98228.10;24446;1357;3026487;-60
2021/12/25 08:59:55;;;;;;;23.20;15.90;;;;;;;2.89;76.75;98223.77;24431;1358;3049515;-61
2021/12/25 09:02:24;;;;;;;22.40;14.40;;;;;;;2.99;76.60;98219.30;24513;1355;3026384;-59
2021/12/25 09:04:53;;;;;;;20.60;12.60;;;;;;;3.44;75.93;98221.67;24490;1349;3027319;-60
2021/12/25 09:07:22;;;;;;;21.80;14.20;;;;;;;3.88;74.17;98216.83;24462;1355;3026325;-60
2021/12/25 09:09:51;;;;;;;21.60;13.50;;;;;;;3.95;73.30;98216.27;24425;1358;3058320;-60
2021/12/25 09:12:32;;;;;;;27.10;17.70;;;;;;;3.71;73.71;98214.59;24497;1355;3052012;-56
2021/12/25 09:15:01;;;;;;;25.40;16.80;;;;;;;3.44;74.84;98211.66;24479;1358;3027304;-60
2021/12/25 09:17:31;;;;;;;26.90;16.10;;;;;;;3.19;75.74;98220.53;24438;1359;3026594;-60
2021/12/25 09:20:10;;;;;;;28.70;16.70;;;;;;;3.11;76.28;98227.34;24439;1354;3052230;-58
2021/12/25 09:22:40;;;;;;;26.10;16.20;;;;;;;3.12;76.31;98238.67;24484;1355;3026760;-59
2021/12/25 09:25:08;;;;;;;26.20;15.20;;;;;;;3.22;75.80;98247.06;24458;1361;3026588;-59
2021/12/25 09:27:38;;;;;;;26.80;15.00;;;;;;;3.77;74.42;98248.77;24433;1354;3051933;-61
2021/12/25 09:30:08;;;;;;;22.40;14.80;;;;;;;4.03;73.17;98253.46;24433;1358;3026651;-59
2021/12/25 09:32:37;;;;;;;20.90;13.60;;;;;;;4.03;72.98;98253.80;24412;1359;3029719;-60
2021/12/25 09:35:06;;;;;;;26.60;15.90;;;;;;;3.78;73.43;98241.42;24390;1358;3028624;-60
2021/12/25 09:37:37;;;;;;;20.40;12.70;;;;;;;3.49;74.59;98235.63;24474;1358;3053681;-59
2021/12/25 09:40:08;;;;;;;18.60;12.40;;;;;;;3.39;74.97;98222.46;24090;1357;3553314;-60
2021/12/25 09:42:42;;;;;;;25.80;17.00;;;;;;;3.28;75.32;98217.13;24400;1355;3027333;-61
2021/12/25 09:45:11;;;;;;;16.30;11.50;;;;;;;2.89;77.26;98205.74;24405;1355;3048739;-59
2021/12/25 09:47:41;;;;;;;22.00;13.70;;;;;;;3.43;75.78;98205.63;24410;1356;3026921;-60
2021/12/25 09:50:10;;;;;;;21.30;13.90;;;;;;;3.77;74.45;98205.10;24427;1355;3068448;-57
2021/12/25 09:52:39;;;;;;;22.90;14.50;;;;;;;3.73;73.81;98210.47;24452;1355;3026340;-62
2021/12/25 09:55:10;;;;;;;28.30;15.70;;;;;;;3.72;74.18;98220.92;24403;1358;3028998;-59
2021/12/25 09:57:39;;;;;;;24.20;15.40;;;;;;;3.41;75.02;98235.48;24420;1355;3026590;-58
2021/12/25 10:00:12;;;;;;;25.20;17.30;;;;;;;3.39;75.10;98235.63;24458;1358;3026917;-59
2021/12/25 10:02:44;;;;;;;28.30;17.10;;;;;;;3.22;75.59;98235.95;24431;1354;3027143;-60
2021/12/25 10:05:13;;;;;;;24.50;16.00;;;;;;;3.22;75.40;98244.97;24420;1352;3026554;-61
2021/12/25 10:08:04;;;;;;;20.70;10.00;;;;;;;3.14;76.43;98251.25;24420;1355;3054297;-61
2021/12/25 10:10:37;;;;;;;23.20;13.70;;;;;;;4.01;73.79;98250.27;24375;1358;3070601;-60
2021/12/25 10:13:22;;;;;;;26.50;15.70;;;;;;;4.21;72.57;98244.38;24403;1358;3026808;-58
2021/12/25 10:15:54;;;;;;;25.40;16.00;;;;;;;4.08;72.66;98242.94;24375;1363;3055753;-63
2021/12/25 10:18:28;;;;;;;16.10;10.40;;;;;;;3.94;72.84;98246.09;24450;1355;3026027;-61
2021/12/25 10:21:14;;;;;;;23.10;15.00;;;;;;;3.86;72.52;98257.08;24472;1358;3054621;-57
2021/12/25 10:23:44;;;;;;;22.40;15.40;;;;;;;3.57;73.71;98264.48;24488;1358;3053059;-61
2021/12/25 10:26:14;;;;;;;21.80;14.90;;;;;;;3.33;74.38;98263.61;24397;1355;3026353;-57
2021/12/25 10:28:43;;;;;;;27.70;18.00;;;;;;;3.27;74.76;98249.19;24450;1355;3057736;-60
2021/12/25 10:31:16;;;;;;;24.80;15.30;;;;;;;3.14;75.98;98245.54;24480;1360;3026531;-58
2021/12/25 10:33:51;;;;;;;23.90;15.50;;;;;;;3.62;74.62;98238.61;24416;1354;3055529;-57
2021/12/25 10:36:30;;;;;;;22.10;13.50;;;;;;;4.27;72.29;98237.24;24461;1355;3058629;-57
2021/12/25 10:39:04;;;;;;;26.90;14.60;;;;;;;4.28;71.75;98239.13;24422;1358;3052994;-61
2021/12/25 10:41:35;;;;;;;;;;;;;;;4.26;71.67;98246.86;24494;1355;3056272;-59
2021/12/25 10:44:13;;;;;;;22.30;14.90;;;;;;;4.01;72.11;98241.06;24459;1355;3029586;-59
2021/12/25 10:47:03;;;;;;;24.60;16.10;;;;;;;3.97;72.03;98243.89;24451;1362;3071003;-58
2021/12/25 10:49:34;;;;;;;28.30;18.40;;;;;;;3.82;72.61;98241.02;24479;1359;3048800;-61
2021/12/25 10:52:30;;;;;;;53.90;27.50;;;;;;;3.30;74.47;98234.16;24500;1358;3026554;-58
2021/12/25 10:55:06;;;;;;;49.20;22.10;;;;;;;3.41;74.20;98239.34;24435;1362;3055014;-58
2021/12/25 10:57:39;;;;;;;33.40;20.20;;;;;;;3.45;74.28;98243.11;24487;1361;3059373;-60
2021/12/25 11:00:10;;;;;;;36.00;20.00;;;;;;;3.96;73.48;98245.64;24427;1355;3052650;-60
2021/12/25 11:02:45;;;;;;;47.70;23.20;;;;;;;4.41;71.64;98233.04;24472;1355;3026403;-58
2021/12/25 11:05:27;;;;;;;36.10;20.40;;;;;;;4.46;71.19;98226.87;24522;1355;3050274;-60
2021/12/25 11:08:12;;;;;;;23.90;13.70;;;;;;;4.18;71.35;98226.48;24466;1356;3071098;-61
2021/12/25 11:10:46;;;;;;;30.10;17.10;;;;;;;3.85;72.31;98233.25;24458;1355;3049261;-58
2021/12/25 11:13:23;;;;;;;29.40;17.30;;;;;;;3.41;74.11;98237.95;24466;1358;3053063;-60
2021/12/25 11:16:17;;;;;;;33.80;19.50;;;;;;;3.48;73.58;98237.73;24453;1355;3054795;-59
2021/12/25 11:21:43;;;;;;;22.90;15.30;;;;;;;3.45;74.22;98263.73;24398;1354;3052265;-58
2021/12/25 11:24:14;;;;;;;25.90;16.60;;;;;;;4.00;72.88;98258.12;24460;1355;3026929;-61
2021/12/25 11:26:46;;;;;;;24.50;14.80;;;;;;;4.44;71.35;98258.02;24456;1358;3028556;-59
2021/12/25 11:29:17;;;;;;;24.00;16.60;;;;;;;4.19;71.31;98260.07;24420;1358;3028509;-59
2021/12/25 11:31:48;;;;;;;22.80;14.10;;;;;;;4.17;71.24;98266.72;24386;1355;3026793;-59
2021/12/25 11:34:18;;;;;;;24.00;17.30;;;;;;;3.79;72.45;98271.50;24436;1355;3030000;-59
2021/12/25 11:36:50;;;;;;;29.60;18.00;;;;;;;3.72;72.57;98274.95;24465;1356;3028750;-59
2021/12/25 11:39:20;;;;;;;25.00;18.10;;;;;;;3.55;73.25;98280.20;24465;1355;3026617;-59
2021/12/25 11:41:53;;;;;;;26.50;17.10;;;;;;;3.37;73.84;98284.52;24430;1361;3027006;-59
2021/12/25 11:44:29;;;;;;;24.50;15.00;;;;;;;3.40;73.69;98274.70;24448;1356;3026422;-59
2021/12/25 11:46:58;;;;;;;24.40;15.10;;;;;;;3.77;73.41;98282.69;24474;1352;3055618;-62
2021/12/25 11:49:27;;;;;;;22.90;14.40;;;;;;;4.40;71.53;98295.33;24411;1359;3028777;-59
2021/12/25 11:52:15;;;;;;;25.80;16.20;;;;;;;4.63;70.56;98315.38;24441;1358;3057062;-60
2021/12/25 11:55:10;;;;;;;20.40;14.20;;;;;;;4.25;71.00;98318.13;24496;1352;3051832;-60
2021/12/25 11:58:42;;;;;;;27.10;16.60;;;;;;;4.37;70.40;98314.52;24442;1362;3071855;-59
2021/12/25 12:00:44;;;;;;;25.40;17.40;;;;;;;3.94;71.54;98319.58;24425;1362;3048912;-60
2021/12/25 12:03:47;;;;;;;24.30;17.10;;;;;;;3.74;72.10;98320.41;24451;1357;3052354;-60
2021/12/25 12:06:16;;;;;;;30.90;18.10;;;;;;;3.45;73.46;98314.25;24450;1355;3053720;-57
2021/12/25 12:08:55;;;;;;;22.90;16.60;;;;;;;3.41;73.42;98311.54;24422;1355;3026561;-60
2021/12/25 12:12:09;;;;;;;23.70;14.90;;;;;;;3.53;73.44;98331.19;24475;1361;3052436;-58
2021/12/25 12:15:04;;;;;;;20.90;13.10;;;;;;;4.62;70.71;98345.98;24445;1358;3056521;-59
2021/12/25 12:17:54;;;;;;;25.00;15.90;;;;;;;4.50;70.13;98369.36;24437;1362;3051177;-57
2021/12/25 12:20:39;;;;;;;25.10;16.40;;;;;;;4.48;69.90;98373.45;24445;1355;3026616;-59
2021/12/25 12:26:12;;;;;;;26.30;15.30;;;;;;;3.75;72.10;98388.08;24431;1361;3054943;-59
2021/12/25 12:28:55;;;;;;;25.20;16.90;;;;;;;3.84;71.57;98389.93;24395;1362;3055904;-61
2021/12/25 12:31:43;;;;;;;31.10;19.50;;;;;;;3.57;72.60;98395.39;24437;1355;3059262;-58
2021/12/25 12:34:30;;;;;;;26.00;17.90;;;;;;;3.60;72.82;98398.21;24473;1362;3051936;-60
2021/12/25 12:37:14;;;;;;;18.60;12.30;;;;;;;3.52;73.42;98397.55;24452;1352;3052834;-60
2021/12/25 12:39:54;;;;;;;24.80;16.60;;;;;;;4.40;71.29;98405.42;24473;1362;3053667;-60
2021/12/25 12:42:41;;;;;;;27.60;16.20;;;;;;;4.76;69.22;98413.79;24450;1361;3070862;-60
2021/12/25 12:45:28;;;;;;;29.20;17.60;;;;;;;5.05;68.26;98421.20;24447;1361;3051875;-61
2021/12/25 12:48:21;;;;;;;26.70;16.40;;;;;;;4.65;69.06;98421.98;24438;1355;3056633;-59
2021/12/25 12:50:55;;;;;;;23.60;17.20;;;;;;;4.40;69.84;98419.46;24502;1355;3055148;-61
2021/12/25 12:53:24;;;;;;;26.40;16.50;;;;;;;4.11;70.72;98411.92;24461;1355;3056473;-61
2021/12/25 12:55:54;;;;;;;21.90;14.40;;;;;;;4.07;70.79;98419.80;24427;1358;3027486;-61
2021/12/25 12:58:25;;;;;;;25.80;17.70;;;;;;;3.94;71.18;98426.48;24465;1355;3028154;-60
2021/12/25 13:00:56;;;;;;;28.30;17.10;;;;;;;3.74;72.02;98427.63;24446;1359;3027109;-60
2021/12/25 13:03:36;;;;;;;29.00;17.50;;;;;;;3.60;72.60;98424.31;24387;1362;3071835;-62
2021/12/25 13:06:11;;;;;;;19.40;12.30;;;;;;;3.58;73.10;98422.89;24454;1358;3026607;-59